As Olivia — DYQC — position and weather

sailwx.info

Track history (hours):
 
Tides and Currents Weather Stations Pressure Air Temp Water Temp Dewpoint Dewpoint Depression Visibility Wind Speed Wind Dir Waves Ship Positions

As Olivia

Last reported at 2014-Nov-14 11:12 UTC. Time now 2014-Dec-19 03:59 UTC.
Position N 36°26' E 014°20'.
Warning: this ship's position is 34 days out of date.

Length 146 m; draft 9.7 m.

Type: Ship. MMSI: 548767000.

Date/timePositionNaut miles runAvg speedWind from/ knotsBaromVisibWave heightAir tempDewpointWater temp
2014-Nov-14 11:12N 36°26' E 014°20'912.6
2014-Nov-14 10:28N 36°29' E 014°09'2412.7
2014-Nov-14 08:32N 36°36' E 013°40'1413.0
2014-Nov-14 07:28N 36°40' E 013°23'  
2014-Nov-11 06:33N 36°00' W 005°14'  
2014-Nov-04 21:32N 49°49' W 003°27'1515.1
2014-Nov-04 20:33N 49°56' W 003°07'9212.7
2014-Nov-04 13:19N 50°22' W 000°49'1316.7
2014-Nov-04 12:32N 50°26' W 000°29'  
Track history (hours):
 
Tides and Currents Weather Stations Pressure Air Temp Water Temp Dewpoint Dewpoint Depression Visibility Wind Speed Wind Dir Waves Ship Positions

As Olivia

Last reported at 2014-Nov-14 11:12 UTC. Time now 2014-Dec-19 03:59 UTC.
Position N 36°26' E 014°20'.
Warning: this ship's position is 34 days out of date.

Length 146 m; draft 9.7 m.

Type: Ship. MMSI: 548767000.

Date/timePositionNaut miles runAvg speedWind from/ knotsBaromVisibWave heightAir tempDewpointWater temp
2014-Nov-14 11:12N 36°26' E 014°20'912.6
2014-Nov-14 10:28N 36°29' E 014°09'2412.7
2014-Nov-14 08:32N 36°36' E 013°40'1413.0
2014-Nov-14 07:28N 36°40' E 013°23'  
2014-Nov-11 06:33N 36°00' W 005°14'  
2014-Nov-04 21:32N 49°49' W 003°27'1515.1
2014-Nov-04 20:33N 49°56' W 003°07'9212.7
2014-Nov-04 13:19N 50°22' W 000°49'1316.7
2014-Nov-04 12:32N 50°26' W 000°29'  

Dump ship's entire track history